createdAt,value
2022-07-28T00:00:34.071Z,99.90
2022-07-28T00:04:51.112Z,99.90
2022-07-28T00:09:08.125Z,99.90
2022-07-28T00:13:25.168Z,99.90
2022-07-28T00:17:42.206Z,99.90
2022-07-28T00:21:59.330Z,99.90
2022-07-28T00:26:16.314Z,99.90
2022-07-28T00:30:33.352Z,99.90
2022-07-28T00:34:53.470Z,99.90
2022-07-28T00:39:10.775Z,99.90
2022-07-28T00:43:27.844Z,99.90
2022-07-28T00:47:44.837Z,99.90
2022-07-28T00:52:02.667Z,99.90
2022-07-28T00:56:20.168Z,99.90
2022-07-28T01:00:37.193Z,99.90
2022-07-28T01:04:54.200Z,99.90
2022-07-28T01:09:11.172Z,99.90
2022-07-28T01:13:33.253Z,99.90
2022-07-28T01:17:50.367Z,99.90
2022-07-28T01:22:09.581Z,99.90
2022-07-28T01:26:55.716Z,99.90
2022-07-28T01:31:16.838Z,99.90
2022-07-28T01:35:38.050Z,99.90
2022-07-28T01:39:57.526Z,99.90
2022-07-28T01:44:16.511Z,99.90
2022-07-28T01:48:34.362Z,99.90
2022-07-28T01:52:52.084Z,99.90
2022-07-28T01:57:14.394Z,99.90
2022-07-28T02:01:32.184Z,99.90
2022-07-28T02:05:50.432Z,99.90
2022-07-28T02:10:08.022Z,99.90
2022-07-28T02:14:26.201Z,99.90
2022-07-28T02:18:43.816Z,99.90
2022-07-28T02:23:01.038Z,99.90
2022-07-28T02:27:27.019Z,99.90
2022-07-28T02:32:24.125Z,99.90
2022-07-28T02:36:53.601Z,99.90
2022-07-28T02:41:15.604Z,99.90
2022-07-28T02:45:33.686Z,99.90
2022-07-28T02:49:51.476Z,99.90
2022-07-28T02:54:09.072Z,99.90
2022-07-28T02:58:27.871Z,99.90
2022-07-28T03:02:46.985Z,99.90
2022-07-28T03:07:04.779Z,99.90
2022-07-28T03:11:21.787Z,99.90
2022-07-28T03:15:40.338Z,99.90
2022-07-28T03:19:57.399Z,99.90
2022-07-28T03:24:15.195Z,99.90
2022-07-28T03:28:33.750Z,99.90
2022-07-28T03:32:52.405Z,99.90
2022-07-28T03:37:12.081Z,99.90
2022-07-28T03:41:29.946Z,99.90
2022-07-28T03:45:47.822Z,99.90
2022-07-28T03:50:05.233Z,99.90
2022-07-28T03:54:22.284Z,99.90
2022-07-28T03:58:39.291Z,99.90
2022-07-28T04:02:56.452Z,99.90
2022-07-28T04:07:13.527Z,99.90
2022-07-28T04:11:30.529Z,99.90
2022-07-28T04:15:47.510Z,99.90
2022-07-28T04:20:04.748Z,99.90
2022-07-28T04:24:21.748Z,99.90
2022-07-28T04:28:38.798Z,99.90
2022-07-28T04:32:56.266Z,99.90
2022-07-28T04:37:14.708Z,99.90
2022-07-28T04:41:31.778Z,99.90
2022-07-28T04:45:54.178Z,99.90
2022-07-28T04:50:15.083Z,99.90
2022-07-28T04:54:32.081Z,99.90
2022-07-28T04:58:49.127Z,99.90
2022-07-28T05:03:06.177Z,99.90
2022-07-28T05:07:23.188Z,99.90
2022-07-28T05:11:40.205Z,99.90
2022-07-28T05:15:57.239Z,99.90
2022-07-28T05:20:14.415Z,99.90
2022-07-28T05:24:31.558Z,99.90
2022-07-28T05:28:48.684Z,99.90
2022-07-28T05:33:05.724Z,99.90
2022-07-28T05:37:22.718Z,99.90
2022-07-28T05:41:39.721Z,99.90
2022-07-28T05:45:56.882Z,99.90
2022-07-28T05:50:17.861Z,99.90
2022-07-28T05:54:34.884Z,99.90
2022-07-28T05:58:53.105Z,99.90
2022-07-28T06:03:10.121Z,99.90
2022-07-28T06:07:42.987Z,99.90
2022-07-28T06:12:01.386Z,99.90
2022-07-28T06:16:20.794Z,99.90
2022-07-28T06:20:38.324Z,99.90
2022-07-28T06:24:55.559Z,99.90
2022-07-28T06:29:12.780Z,99.90
2022-07-28T06:33:29.916Z,99.90
2022-07-28T06:37:47.389Z,99.90
2022-07-28T06:42:04.406Z,99.90
2022-07-28T06:46:22.145Z,99.90
2022-07-28T06:50:39.377Z,99.90
2022-07-28T06:54:58.477Z,99.90
2022-07-28T06:59:16.474Z,99.90
2022-07-28T07:03:34.019Z,99.90
2022-07-28T07:07:51.063Z,99.90
2022-07-28T07:12:08.094Z,99.90
2022-07-28T07:16:25.167Z,99.90
2022-07-28T07:20:42.213Z,99.90
2022-07-28T07:25:06.886Z,99.90
2022-07-28T07:29:24.396Z,99.90
2022-07-28T07:33:41.697Z,99.90
2022-07-28T07:37:58.763Z,99.90
2022-07-28T07:42:15.782Z,99.90
2022-07-28T07:46:32.775Z,99.90
2022-07-28T07:50:53.808Z,99.90
2022-07-28T07:55:11.343Z,99.60
2022-07-28T07:59:28.436Z,94.60
2022-07-28T08:03:46.216Z,93.10
2022-07-28T08:08:07.528Z,89.50
2022-07-28T08:12:25.148Z,85.10
2022-07-28T08:16:42.386Z,82.30
2022-07-28T08:20:59.536Z,76.80
2022-07-28T08:25:17.012Z,75.00
2022-07-28T08:29:34.093Z,69.60
2022-07-28T08:33:54.154Z,70.20
2022-07-28T08:38:12.711Z,63.00
2022-07-28T08:42:40.507Z,55.10
2022-07-28T08:46:59.087Z,56.60
2022-07-28T08:51:16.501Z,54.90
2022-07-28T08:55:33.909Z,51.50
2022-07-28T08:59:51.703Z,49.20
2022-07-28T09:04:09.093Z,50.50
2022-07-28T09:08:26.334Z,48.90
2022-07-28T09:12:43.416Z,50.40
2022-07-28T09:17:01.704Z,48.30
2022-07-28T09:21:19.204Z,45.60
2022-07-28T09:25:36.282Z,47.40
2022-07-28T09:30:00.267Z,46.80
2022-07-28T09:34:18.339Z,47.10
2022-07-28T09:38:40.126Z,44.80
2022-07-28T09:42:58.221Z,45.40
2022-07-28T09:47:25.633Z,46.20
2022-07-28T09:51:43.096Z,44.50
2022-07-28T09:56:01.621Z,45.20
2022-07-28T10:00:25.828Z,45.90
2022-07-28T10:04:45.061Z,45.10
2022-07-28T10:09:03.265Z,46.00
2022-07-28T10:13:20.303Z,43.00
2022-07-28T10:17:37.299Z,41.50
2022-07-28T10:21:54.461Z,40.30
2022-07-28T10:26:13.156Z,43.00
2022-07-28T10:30:33.687Z,44.00
2022-07-28T10:34:54.099Z,42.00
2022-07-28T10:39:18.252Z,41.30
2022-07-28T10:43:35.592Z,43.00
2022-07-28T10:47:53.671Z,42.00
2022-07-28T10:52:30.488Z,39.00
2022-07-28T10:56:50.993Z,44.30
2022-07-28T11:01:10.608Z,38.60
2022-07-28T11:05:34.971Z,42.10
2022-07-28T11:09:53.397Z,40.90
2022-07-28T11:14:37.161Z,38.90
2022-07-28T11:19:07.601Z,43.60
2022-07-28T11:23:37.961Z,39.80
2022-07-28T11:28:01.054Z,43.20
2022-07-28T11:32:18.048Z,41.80
2022-07-28T11:36:53.664Z,40.20
2022-07-28T11:41:26.698Z,40.10
2022-07-28T11:45:47.495Z,41.00
2022-07-28T11:50:14.946Z,39.70
2022-07-28T11:54:32.009Z,35.40
2022-07-28T11:58:56.356Z,39.20
2022-07-28T12:03:48.887Z,36.40
2022-07-28T12:08:08.416Z,37.10
2022-07-28T12:12:28.012Z,36.10
2022-07-28T12:16:45.843Z,38.30
2022-07-28T12:21:05.204Z,36.90
2022-07-28T12:25:22.492Z,38.90
2022-07-28T12:29:39.725Z,37.30
2022-07-28T12:33:56.900Z,36.80
2022-07-28T12:38:14.211Z,39.30
2022-07-28T12:42:32.249Z,38.10
2022-07-28T12:46:49.331Z,36.90
2022-07-28T12:51:06.370Z,36.90
2022-07-28T12:55:30.556Z,35.90
2022-07-28T12:59:47.580Z,36.40
2022-07-28T13:04:04.659Z,37.80
2022-07-28T13:08:23.069Z,38.00
2022-07-28T13:12:40.054Z,40.20
2022-07-28T13:16:57.378Z,34.50
2022-07-28T13:21:15.678Z,39.10
2022-07-28T13:25:32.715Z,38.40
2022-07-28T13:29:50.004Z,39.20
2022-07-28T13:34:08.166Z,36.90
2022-07-28T13:38:25.151Z,35.10
2022-07-28T13:42:52.772Z,38.30
2022-07-28T13:47:16.670Z,38.30
2022-07-28T13:51:34.692Z,39.60
2022-07-28T13:55:52.354Z,39.60
2022-07-28T14:00:09.578Z,38.80
2022-07-28T14:04:30.649Z,38.30
2022-07-28T14:08:48.668Z,40.20
2022-07-28T14:13:09.765Z,36.70
2022-07-28T14:17:47.336Z,37.00
2022-07-28T14:22:05.841Z,39.40
2022-07-28T14:26:36.137Z,41.20
2022-07-28T14:30:53.322Z,37.90
2022-07-28T14:35:10.472Z,39.00
2022-07-28T14:39:27.575Z,36.60
2022-07-28T14:43:44.553Z,36.60
2022-07-28T14:48:01.583Z,35.10
2022-07-28T14:52:18.592Z,39.30
2022-07-28T14:56:37.414Z,34.90
2022-07-28T15:00:54.740Z,34.80
2022-07-28T15:05:11.818Z,35.10
2022-07-28T15:09:29.277Z,34.90
2022-07-28T15:13:46.283Z,36.40
2022-07-28T15:18:03.712Z,37.60
2022-07-28T15:22:20.715Z,36.30
2022-07-28T15:26:43.513Z,37.80
2022-07-28T15:31:00.965Z,36.40
2022-07-28T15:35:18.411Z,35.30
2022-07-28T15:39:35.526Z,36.00
2022-07-28T15:43:52.533Z,36.60
2022-07-28T15:48:10.132Z,36.30
2022-07-28T15:52:27.150Z,37.30
2022-07-28T15:56:44.209Z,38.00
2022-07-28T16:01:02.144Z,38.70
2022-07-28T16:05:19.569Z,38.70
2022-07-28T16:09:45.308Z,38.50
2022-07-28T16:14:03.656Z,38.80
2022-07-28T16:18:20.663Z,39.30
2022-07-28T16:22:38.331Z,38.90
2022-07-28T16:26:55.893Z,41.00
2022-07-28T16:31:12.933Z,40.90
2022-07-28T16:35:32.805Z,41.50
2022-07-28T16:39:49.805Z,40.70
2022-07-28T16:44:06.853Z,40.60
2022-07-28T16:48:23.851Z,40.80
2022-07-28T16:52:41.155Z,41.20
2022-07-28T16:56:58.193Z,41.20
2022-07-28T17:01:15.856Z,41.80
2022-07-28T17:05:34.870Z,42.00
2022-07-28T17:09:51.952Z,42.60
2022-07-28T17:14:10.869Z,42.60
2022-07-28T17:18:28.154Z,42.40
2022-07-28T17:22:45.391Z,42.70
2022-07-28T17:27:36.540Z,43.30
2022-07-28T17:31:39.667Z,43.00
2022-07-28T17:35:58.364Z,43.80
2022-07-28T17:40:15.377Z,43.90
2022-07-28T17:44:33.851Z,43.20
2022-07-28T17:48:51.192Z,43.50
2022-07-28T17:53:09.077Z,44.00
2022-07-28T17:57:27.672Z,45.20
2022-07-28T18:01:47.561Z,44.50
2022-07-28T18:06:04.777Z,45.00
2022-07-28T18:10:25.046Z,45.90
2022-07-28T18:14:44.221Z,45.10
2022-07-28T18:19:01.974Z,46.30
2022-07-28T18:23:19.621Z,45.50
2022-07-28T18:27:36.734Z,46.10
2022-07-28T18:31:53.782Z,45.50
2022-07-28T18:36:10.844Z,46.30
2022-07-28T18:40:28.862Z,46.50
2022-07-28T18:44:45.881Z,46.40
2022-07-28T18:49:03.064Z,47.30
2022-07-28T18:53:20.147Z,47.20
2022-07-28T18:57:37.697Z,47.10
2022-07-28T19:01:54.758Z,47.10
2022-07-28T19:06:11.881Z,47.70
2022-07-28T19:10:28.894Z,47.20
2022-07-28T19:14:45.858Z,47.90
2022-07-28T19:19:02.940Z,48.10
2022-07-28T19:23:19.943Z,47.90
2022-07-28T19:27:37.185Z,49.20
2022-07-28T19:31:54.270Z,48.80
2022-07-28T19:36:14.455Z,48.90
2022-07-28T19:40:32.229Z,50.40
2022-07-28T19:44:52.035Z,50.60
2022-07-28T19:49:12.810Z,50.10
2022-07-28T19:53:31.768Z,50.80
2022-07-28T19:57:49.439Z,53.00
2022-07-28T20:02:07.011Z,54.90
2022-07-28T20:06:24.949Z,55.30
2022-07-28T20:10:42.523Z,56.70
2022-07-28T20:14:59.638Z,57.40
2022-07-28T20:19:16.677Z,58.60
2022-07-28T20:23:34.222Z,58.90
2022-07-28T20:27:51.657Z,59.60
2022-07-28T20:32:08.674Z,60.40
2022-07-28T20:36:29.620Z,60.80
2022-07-28T20:40:47.066Z,61.70
2022-07-28T20:45:05.006Z,62.10
2022-07-28T20:49:22.440Z,63.40
2022-07-28T20:53:39.483Z,64.90
2022-07-28T20:57:57.484Z,64.80
2022-07-28T21:02:14.524Z,65.40
2022-07-28T21:06:31.901Z,65.80
2022-07-28T21:10:49.200Z,66.20
2022-07-28T21:15:07.257Z,66.30
2022-07-28T21:19:24.734Z,66.20
2022-07-28T21:23:41.743Z,67.60
2022-07-28T21:28:17.361Z,69.00
2022-07-28T21:32:34.342Z,70.10
2022-07-28T21:36:51.365Z,70.20
2022-07-28T21:41:08.432Z,71.80
2022-07-28T21:45:25.439Z,73.40
2022-07-28T21:49:42.422Z,74.00
2022-07-28T21:54:00.076Z,75.10
2022-07-28T21:58:17.094Z,76.50
2022-07-28T22:02:34.138Z,80.20
2022-07-28T22:06:51.100Z,80.20
2022-07-28T22:11:08.132Z,81.50
2022-07-28T22:15:25.151Z,81.30
2022-07-28T22:19:42.170Z,82.00
2022-07-28T22:23:59.253Z,83.60
2022-07-28T22:28:16.317Z,86.80
2022-07-28T22:32:46.617Z,87.30
2022-07-28T22:37:11.122Z,87.70
2022-07-28T22:41:30.130Z,87.50
2022-07-28T22:45:50.733Z,89.60
2022-07-28T22:50:09.211Z,90.30
2022-07-28T22:54:26.227Z,90.80
2022-07-28T22:58:43.311Z,91.20
2022-07-28T23:03:00.381Z,92.10
2022-07-28T23:07:19.307Z,92.30
2022-07-28T23:11:36.525Z,93.40
2022-07-28T23:15:53.517Z,94.50
2022-07-28T23:20:10.734Z,95.80
2022-07-28T23:24:27.779Z,95.80
2022-07-28T23:28:44.849Z,96.50
2022-07-28T23:33:02.016Z,97.60
2022-07-28T23:37:19.112Z,97.40
2022-07-28T23:41:36.100Z,97.50
2022-07-28T23:45:53.082Z,95.80
2022-07-28T23:50:10.314Z,95.90
2022-07-28T23:54:27.347Z,97.60
2022-07-28T23:58:44.412Z,99.20
